sensor_id;sensor_type;location;lat;lon;timestamp;pressure;altitude;pressure_sealevel;temperature
69186;BMP280;56298;49.246;9.410;2024-02-26T00:02:13;97579.31;;;7.49
69186;BMP280;56298;49.246;9.410;2024-02-26T00:04:39;97572.72;;;7.57
69186;BMP280;56298;49.246;9.410;2024-02-26T00:07:04;97575.09;;;7.59
69186;BMP280;56298;49.246;9.410;2024-02-26T00:09:30;97574.72;;;7.60
69186;BMP280;56298;49.246;9.410;2024-02-26T00:11:56;97575.03;;;7.51
69186;BMP280;56298;49.246;9.410;2024-02-26T00:14:23;97563.00;;;7.56
69186;BMP280;56298;49.246;9.410;2024-02-26T00:16:48;97557.22;;;7.65
69186;BMP280;56298;49.246;9.410;2024-02-26T00:19:13;97550.97;;;7.61
69186;BMP280;56298;49.246;9.410;2024-02-26T00:21:41;97555.19;;;7.55
69186;BMP280;56298;49.246;9.410;2024-02-26T00:24:07;97558.44;;;7.71
69186;BMP280;56298;49.246;9.410;2024-02-26T00:26:32;97553.69;;;7.64
69186;BMP280;56298;49.246;9.410;2024-02-26T00:28:58;97551.00;;;7.68
69186;BMP280;56298;49.246;9.410;2024-02-26T00:31:23;97558.72;;;7.59
69186;BMP280;56298;49.246;9.410;2024-02-26T00:33:48;97556.78;;;7.59
69186;BMP280;56298;49.246;9.410;2024-02-26T00:36:13;97553.97;;;7.52
69186;BMP280;56298;49.246;9.410;2024-02-26T00:38:39;97550.59;;;7.66
69186;BMP280;56298;49.246;9.410;2024-02-26T00:41:05;97557.97;;;7.62
69186;BMP280;56298;49.246;9.410;2024-02-26T00:43:30;97550.13;;;7.53
69186;BMP280;56298;49.246;9.410;2024-02-26T00:45:56;97551.97;;;7.45
69186;BMP280;56298;49.246;9.410;2024-02-26T00:48:21;97549.59;;;7.36
69186;BMP280;56298;49.246;9.410;2024-02-26T00:50:46;97545.25;;;7.32
69186;BMP280;56298;49.246;9.410;2024-02-26T00:53:12;97549.09;;;7.23
69186;BMP280;56298;49.246;9.410;2024-02-26T00:55:37;97547.13;;;7.24
69186;BMP280;56298;49.246;9.410;2024-02-26T01:00:30;97569.13;;;7.46
69186;BMP280;56298;49.246;9.410;2024-02-26T01:02:56;97567.16;;;7.43
69186;BMP280;56298;49.246;9.410;2024-02-26T01:05:21;97569.50;;;7.44
69186;BMP280;56298;49.246;9.410;2024-02-26T01:07:47;97562.03;;;7.37
69186;BMP280;56298;49.246;9.410;2024-02-26T01:10:12;97569.03;;;7.38
69186;BMP280;56298;49.246;9.410;2024-02-26T01:12:37;97582.75;;;7.42
69186;BMP280;56298;49.246;9.410;2024-02-26T01:15:03;97571.78;;;7.38
69186;BMP280;56298;49.246;9.410;2024-02-26T01:17:28;97565.25;;;7.47
69186;BMP280;56298;49.246;9.410;2024-02-26T01:19:54;97564.41;;;7.43
69186;BMP280;56298;49.246;9.410;2024-02-26T01:22:19;97559.63;;;7.29
69186;BMP280;56298;49.246;9.410;2024-02-26T01:24:45;97567.28;;;7.16
69186;BMP280;56298;49.246;9.410;2024-02-26T01:27:10;97572.97;;;7.00
69186;BMP280;56298;49.246;9.410;2024-02-26T01:29:37;97565.94;;;6.98
69186;BMP280;56298;49.246;9.410;2024-02-26T01:32:03;97566.63;;;6.92
69186;BMP280;56298;49.246;9.410;2024-02-26T01:34:30;97569.41;;;6.95
69186;BMP280;56298;49.246;9.410;2024-02-26T01:36:55;97562.91;;;6.73
69186;BMP280;56298;49.246;9.410;2024-02-26T01:39:21;97556.28;;;6.70
69186;BMP280;56298;49.246;9.410;2024-02-26T01:41:47;97553.31;;;6.83
69186;BMP280;56298;49.246;9.410;2024-02-26T01:44:12;97563.72;;;6.77
69186;BMP280;56298;49.246;9.410;2024-02-26T01:46:38;97561.41;;;6.76
69186;BMP280;56298;49.246;9.410;2024-02-26T01:49:04;97572.59;;;6.70
69186;BMP280;56298;49.246;9.410;2024-02-26T01:51:30;97576.94;;;6.75
69186;BMP280;56298;49.246;9.410;2024-02-26T01:53:56;97579.00;;;6.82
69186;BMP280;56298;49.246;9.410;2024-02-26T01:56:22;97578.81;;;6.67
69186;BMP280;56298;49.246;9.410;2024-02-26T01:58:48;97577.59;;;6.65
69186;BMP280;56298;49.246;9.410;2024-02-26T02:01:15;97584.66;;;6.69
69186;BMP280;56298;49.246;9.410;2024-02-26T02:03:41;97581.34;;;6.83
69186;BMP280;56298;49.246;9.410;2024-02-26T02:06:07;97585.63;;;6.84
69186;BMP280;56298;49.246;9.410;2024-02-26T02:08:33;97585.16;;;6.79
69186;BMP280;56298;49.246;9.410;2024-02-26T02:11:00;97584.38;;;6.78
69186;BMP280;56298;49.246;9.410;2024-02-26T02:13:25;97590.06;;;7.00
69186;BMP280;56298;49.246;9.410;2024-02-26T02:15:51;97586.59;;;7.00
69186;BMP280;56298;49.246;9.410;2024-02-26T02:18:17;97596.34;;;7.04
69186;BMP280;56298;49.246;9.410;2024-02-26T02:20:42;97592.91;;;7.07
69186;BMP280;56298;49.246;9.410;2024-02-26T02:23:07;97591.00;;;7.11
69186;BMP280;56298;49.246;9.410;2024-02-26T02:25:33;97582.88;;;7.19
69186;BMP280;56298;49.246;9.410;2024-02-26T02:27:58;97588.34;;;7.19
69186;BMP280;56298;49.246;9.410;2024-02-26T02:30:25;97585.56;;;7.15
69186;BMP280;56298;49.246;9.410;2024-02-26T02:32:51;97596.31;;;6.97
69186;BMP280;56298;49.246;9.410;2024-02-26T02:35:17;97604.72;;;6.88
69186;BMP280;56298;49.246;9.410;2024-02-26T02:37:42;97590.53;;;6.72
69186;BMP280;56298;49.246;9.410;2024-02-26T02:40:07;97605.38;;;6.78
69186;BMP280;56298;49.246;9.410;2024-02-26T02:42:33;97581.59;;;6.75
69186;BMP280;56298;49.246;9.410;2024-02-26T02:44:58;97577.06;;;6.86
69186;BMP280;56298;49.246;9.410;2024-02-26T02:47:23;97586.44;;;6.85
69186;BMP280;56298;49.246;9.410;2024-02-26T02:49:49;97579.88;;;6.93
69186;BMP280;56298;49.246;9.410;2024-02-26T02:52:14;97547.00;;;6.75
69186;BMP280;56298;49.246;9.410;2024-02-26T02:54:39;97579.41;;;6.53
69186;BMP280;56298;49.246;9.410;2024-02-26T02:57:07;97551.09;;;6.58
69186;BMP280;56298;49.246;9.410;2024-02-26T02:59:32;97538.25;;;6.59
69186;BMP280;56298;49.246;9.410;2024-02-26T03:01:57;97534.28;;;6.52
69186;BMP280;56298;49.246;9.410;2024-02-26T03:04:22;97537.03;;;6.56
69186;BMP280;56298;49.246;9.410;2024-02-26T03:06:48;97548.03;;;6.63
69186;BMP280;56298;49.246;9.410;2024-02-26T03:09:13;97568.78;;;6.75
69186;BMP280;56298;49.246;9.410;2024-02-26T03:11:38;97564.84;;;6.69
69186;BMP280;56298;49.246;9.410;2024-02-26T03:14:04;97593.81;;;6.84
69186;BMP280;56298;49.246;9.410;2024-02-26T03:16:30;97597.44;;;6.96
69186;BMP280;56298;49.246;9.410;2024-02-26T03:18:55;97614.59;;;7.00
69186;BMP280;56298;49.246;9.410;2024-02-26T03:21:21;97617.31;;;7.00
69186;BMP280;56298;49.246;9.410;2024-02-26T03:23:46;97615.28;;;6.93
69186;BMP280;56298;49.246;9.410;2024-02-26T03:26:11;97620.50;;;7.06
69186;BMP280;56298;49.246;9.410;2024-02-26T03:28:39;97616.25;;;7.08
69186;BMP280;56298;49.246;9.410;2024-02-26T03:31:04;97623.00;;;7.18
69186;BMP280;56298;49.246;9.410;2024-02-26T03:33:30;97628.81;;;7.17
69186;BMP280;56298;49.246;9.410;2024-02-26T03:35:55;97620.38;;;6.95
69186;BMP280;56298;49.246;9.410;2024-02-26T03:38:20;97640.97;;;6.92
69186;BMP280;56298;49.246;9.410;2024-02-26T03:40:46;97631.00;;;7.04
69186;BMP280;56298;49.246;9.410;2024-02-26T03:43:11;97627.00;;;6.94
69186;BMP280;56298;49.246;9.410;2024-02-26T03:45:37;97628.16;;;6.93
69186;BMP280;56298;49.246;9.410;2024-02-26T03:48:03;97634.44;;;6.97
69186;BMP280;56298;49.246;9.410;2024-02-26T03:50:28;97637.59;;;7.03
69186;BMP280;56298;49.246;9.410;2024-02-26T03:52:54;97639.28;;;7.15
69186;BMP280;56298;49.246;9.410;2024-02-26T03:55:19;97629.00;;;7.01
69186;BMP280;56298;49.246;9.410;2024-02-26T03:57:49;97639.75;;;6.90
69186;BMP280;56298;49.246;9.410;2024-02-26T04:00:15;97638.72;;;6.98
69186;BMP280;56298;49.246;9.410;2024-02-26T04:02:40;97640.31;;;7.03
69186;BMP280;56298;49.246;9.410;2024-02-26T04:05:09;97648.56;;;7.06
69186;BMP280;56298;49.246;9.410;2024-02-26T04:07:35;97651.69;;;7.08
69186;BMP280;56298;49.246;9.410;2024-02-26T04:10:00;97655.59;;;6.80
69186;BMP280;56298;49.246;9.410;2024-02-26T04:12:28;97652.66;;;6.62
69186;BMP280;56298;49.246;9.410;2024-02-26T04:14:54;97654.19;;;6.60
69186;BMP280;56298;49.246;9.410;2024-02-26T04:17:19;97659.19;;;6.57
69186;BMP280;56298;49.246;9.410;2024-02-26T04:19:44;97659.00;;;6.47
69186;BMP280;56298;49.246;9.410;2024-02-26T04:22:10;97663.59;;;6.39
69186;BMP280;56298;49.246;9.410;2024-02-26T04:24:36;97650.63;;;6.32
69186;BMP280;56298;49.246;9.410;2024-02-26T04:27:01;97649.41;;;6.26
69186;BMP280;56298;49.246;9.410;2024-02-26T04:29:26;97640.06;;;6.27
69186;BMP280;56298;49.246;9.410;2024-02-26T04:31:52;97644.28;;;5.97
69186;BMP280;56298;49.246;9.410;2024-02-26T04:34:17;97644.16;;;5.90
69186;BMP280;56298;49.246;9.410;2024-02-26T04:36:42;97633.38;;;5.74
69186;BMP280;56298;49.246;9.410;2024-02-26T04:39:08;97629.16;;;5.53
69186;BMP280;56298;49.246;9.410;2024-02-26T04:41:33;97624.09;;;5.52
69186;BMP280;56298;49.246;9.410;2024-02-26T04:43:59;97629.16;;;5.53
69186;BMP280;56298;49.246;9.410;2024-02-26T04:46:24;97623.22;;;5.47
69186;BMP280;56298;49.246;9.410;2024-02-26T04:48:49;97627.06;;;5.66
69186;BMP280;56298;49.246;9.410;2024-02-26T04:51:14;97632.72;;;5.81
69186;BMP280;56298;49.246;9.410;2024-02-26T04:53:40;97636.34;;;5.88
69186;BMP280;56298;49.246;9.410;2024-02-26T04:56:05;97627.81;;;5.86
69186;BMP280;56298;49.246;9.410;2024-02-26T04:58:30;97629.53;;;5.98
69186;BMP280;56298;49.246;9.410;2024-02-26T05:00:57;97631.53;;;6.01
69186;BMP280;56298;49.246;9.410;2024-02-26T05:03:22;97623.41;;;6.05
69186;BMP280;56298;49.246;9.410;2024-02-26T05:05:47;97629.03;;;5.93
69186;BMP280;56298;49.246;9.410;2024-02-26T05:08:13;97627.66;;;5.79
69186;BMP280;56298;49.246;9.410;2024-02-26T05:10:38;97619.97;;;5.61
69186;BMP280;56298;49.246;9.410;2024-02-26T05:13:08;97619.91;;;5.58
69186;BMP280;56298;49.246;9.410;2024-02-26T05:15:33;97623.34;;;5.55
69186;BMP280;56298;49.246;9.410;2024-02-26T05:17:59;97609.63;;;5.47
69186;BMP280;56298;49.246;9.410;2024-02-26T05:20:25;97604.03;;;5.40
69186;BMP280;56298;49.246;9.410;2024-02-26T05:22:50;97607.00;;;5.31
69186;BMP280;56298;49.246;9.410;2024-02-26T05:25:15;97606.38;;;5.38
69186;BMP280;56298;49.246;9.410;2024-02-26T05:27:41;97603.22;;;5.36
69186;BMP280;56298;49.246;9.410;2024-02-26T05:30:07;97600.50;;;5.36
69186;BMP280;56298;49.246;9.410;2024-02-26T05:32:33;97602.22;;;5.25
69186;BMP280;56298;49.246;9.410;2024-02-26T05:34:58;97595.22;;;5.24
69186;BMP280;56298;49.246;9.410;2024-02-26T05:37:23;97591.66;;;5.19
69186;BMP280;56298;49.246;9.410;2024-02-26T05:39:48;97590.44;;;5.17
69186;BMP280;56298;49.246;9.410;2024-02-26T05:42:14;97601.94;;;5.10
69186;BMP280;56298;49.246;9.410;2024-02-26T05:44:39;97600.72;;;5.07
69186;BMP280;56298;49.246;9.410;2024-02-26T05:47:04;97616.22;;;5.07
69186;BMP280;56298;49.246;9.410;2024-02-26T05:49:30;97610.94;;;5.14
69186;BMP280;56298;49.246;9.410;2024-02-26T05:51:56;97606.84;;;5.24
69186;BMP280;56298;49.246;9.410;2024-02-26T05:54:21;97608.00;;;5.23
69186;BMP280;56298;49.246;9.410;2024-02-26T05:56:46;97607.97;;;5.19
69186;BMP280;56298;49.246;9.410;2024-02-26T05:59:12;97605.25;;;5.19
69186;BMP280;56298;49.246;9.410;2024-02-26T06:01:37;97612.53;;;5.15
69186;BMP280;56298;49.246;9.410;2024-02-26T06:04:02;97608.50;;;5.29
69186;BMP280;56298;49.246;9.410;2024-02-26T06:06:27;97610.38;;;5.25
69186;BMP280;56298;49.246;9.410;2024-02-26T06:08:53;97619.38;;;5.29
69186;BMP280;56298;49.246;9.410;2024-02-26T06:11:18;97612.09;;;5.33
69186;BMP280;56298;49.246;9.410;2024-02-26T06:13:43;97618.53;;;5.68
69186;BMP280;56298;49.246;9.410;2024-02-26T06:16:08;97627.28;;;5.81
69186;BMP280;56298;49.246;9.410;2024-02-26T06:18:34;97620.94;;;5.96
69186;BMP280;56298;49.246;9.410;2024-02-26T06:21:00;97608.19;;;6.00
69186;BMP280;56298;49.246;9.410;2024-02-26T06:23:25;97623.78;;;5.80
69186;BMP280;56298;49.246;9.410;2024-02-26T06:25:51;97627.13;;;5.70
69186;BMP280;56298;49.246;9.410;2024-02-26T06:28:17;97630.66;;;5.74
69186;BMP280;56298;49.246;9.410;2024-02-26T06:30:42;97645.72;;;5.91
69186;BMP280;56298;49.246;9.410;2024-02-26T06:33:07;97644.56;;;5.92
69186;BMP280;56298;49.246;9.410;2024-02-26T06:35:33;97654.34;;;5.73
69186;BMP280;56298;49.246;9.410;2024-02-26T06:37:58;97664.75;;;5.91
69186;BMP280;56298;49.246;9.410;2024-02-26T06:40:23;97666.75;;;5.94
69186;BMP280;56298;49.246;9.410;2024-02-26T06:42:49;97678.81;;;5.93
69186;BMP280;56298;49.246;9.410;2024-02-26T06:45:15;97686.66;;;5.98
69186;BMP280;56298;49.246;9.410;2024-02-26T06:47:40;97688.59;;;5.98
69186;BMP280;56298;49.246;9.410;2024-02-26T06:50:06;97692.53;;;6.00
69186;BMP280;56298;49.246;9.410;2024-02-26T06:52:31;97696.88;;;6.05
69186;BMP280;56298;49.246;9.410;2024-02-26T06:54:56;97709.06;;;5.92
69186;BMP280;56298;49.246;9.410;2024-02-26T06:57:22;97712.41;;;6.05
69186;BMP280;56298;49.246;9.410;2024-02-26T06:59:47;97724.63;;;6.14
69186;BMP280;56298;49.246;9.410;2024-02-26T07:02:13;97732.28;;;6.32
69186;BMP280;56298;49.246;9.410;2024-02-26T07:04:39;97738.28;;;6.41
69186;BMP280;56298;49.246;9.410;2024-02-26T07:07:04;97733.31;;;6.47
69186;BMP280;56298;49.246;9.410;2024-02-26T07:09:29;97751.41;;;6.59
69186;BMP280;56298;49.246;9.410;2024-02-26T07:11:54;97735.91;;;6.63
69186;BMP280;56298;49.246;9.410;2024-02-26T07:14:20;97710.56;;;6.59
69186;BMP280;56298;49.246;9.410;2024-02-26T07:16:45;97687.75;;;6.17
69186;BMP280;56298;49.246;9.410;2024-02-26T07:19:10;97699.00;;;5.72
69186;BMP280;56298;49.246;9.410;2024-02-26T07:21:35;97697.44;;;5.71
69186;BMP280;56298;49.246;9.410;2024-02-26T07:24:01;97692.41;;;5.73
69186;BMP280;56298;49.246;9.410;2024-02-26T07:26:26;97698.25;;;5.95
69186;BMP280;56298;49.246;9.410;2024-02-26T07:28:52;97693.56;;;6.15
69186;BMP280;56298;49.246;9.410;2024-02-26T07:31:17;97704.22;;;6.28
69186;BMP280;56298;49.246;9.410;2024-02-26T07:33:43;97712.69;;;6.46
69186;BMP280;56298;49.246;9.410;2024-02-26T07:36:08;97725.69;;;6.56
69186;BMP280;56298;49.246;9.410;2024-02-26T07:38:33;97730.25;;;6.76
69186;BMP280;56298;49.246;9.410;2024-02-26T07:41:01;97726.22;;;6.93
69186;BMP280;56298;49.246;9.410;2024-02-26T07:43:27;97742.81;;;6.84
69186;BMP280;56298;49.246;9.410;2024-02-26T07:45:52;97745.97;;;6.59
69186;BMP280;56298;49.246;9.410;2024-02-26T07:48:17;97745.78;;;6.75
69186;BMP280;56298;49.246;9.410;2024-02-26T07:50:42;97754.47;;;6.81
69186;BMP280;56298;49.246;9.410;2024-02-26T07:53:09;97751.16;;;6.95
69186;BMP280;56298;49.246;9.410;2024-02-26T07:55:35;97751.78;;;6.84
69186;BMP280;56298;49.246;9.410;2024-02-26T07:58:00;97755.69;;;6.87
69186;BMP280;56298;49.246;9.410;2024-02-26T08:00:25;97754.91;;;7.14
69186;BMP280;56298;49.246;9.410;2024-02-26T08:02:51;97748.56;;;7.33
69186;BMP280;56298;49.246;9.410;2024-02-26T08:05:16;97746.44;;;7.22
69186;BMP280;56298;49.246;9.410;2024-02-26T08:07:41;97746.88;;;7.24
69186;BMP280;56298;49.246;9.410;2024-02-26T08:10:07;97741.56;;;7.35
69186;BMP280;56298;49.246;9.410;2024-02-26T08:12:32;97752.50;;;7.39
69186;BMP280;56298;49.246;9.410;2024-02-26T08:14:58;97753.50;;;7.58
69186;BMP280;56298;49.246;9.410;2024-02-26T08:17:23;97762.91;;;7.60
69186;BMP280;56298;49.246;9.410;2024-02-26T08:19:49;97764.19;;;7.74
69186;BMP280;56298;49.246;9.410;2024-02-26T08:22:14;97757.44;;;7.98
69186;BMP280;56298;49.246;9.410;2024-02-26T08:24:44;97754.69;;;7.94
69186;BMP280;56298;49.246;9.410;2024-02-26T08:27:10;97764.47;;;7.99
69186;BMP280;56298;49.246;9.410;2024-02-26T08:29:35;97772.22;;;7.93
69186;BMP280;56298;49.246;9.410;2024-02-26T08:32:01;97771.84;;;7.95
69186;BMP280;56298;49.246;9.410;2024-02-26T08:34:26;97779.78;;;8.11
69186;BMP280;56298;49.246;9.410;2024-02-26T08:36:51;97777.84;;;8.12
69186;BMP280;56298;49.246;9.410;2024-02-26T08:39:17;97774.81;;;8.20
69186;BMP280;56298;49.246;9.410;2024-02-26T08:41:43;97784.16;;;8.19
69186;BMP280;56298;49.246;9.410;2024-02-26T08:44:10;97776.16;;;8.38
69186;BMP280;56298;49.246;9.410;2024-02-26T08:46:36;97768.47;;;8.54
69186;BMP280;56298;49.246;9.410;2024-02-26T08:49:01;97766.59;;;8.66
69186;BMP280;56298;49.246;9.410;2024-02-26T08:51:26;97765.53;;;8.81
69186;BMP280;56298;49.246;9.410;2024-02-26T08:53:52;97770.69;;;8.94
69186;BMP280;56298;49.246;9.410;2024-02-26T08:56:20;97765.25;;;9.01
69186;BMP280;56298;49.246;9.410;2024-02-26T08:58:46;97768.34;;;8.92
69186;BMP280;56298;49.246;9.410;2024-02-26T09:01:14;97756.06;;;8.68
69186;BMP280;56298;49.246;9.410;2024-02-26T09:03:39;97763.88;;;8.69
69186;BMP280;56298;49.246;9.410;2024-02-26T09:06:06;97758.03;;;8.67
69186;BMP280;56298;49.246;9.410;2024-02-26T09:08:34;97761.50;;;8.64
69186;BMP280;56298;49.246;9.410;2024-02-26T09:11:01;97764.47;;;8.97
69186;BMP280;56298;49.246;9.410;2024-02-26T09:13:27;97764.94;;;9.10
69186;BMP280;56298;49.246;9.410;2024-02-26T09:15:52;97764.66;;;9.37
69186;BMP280;56298;49.246;9.410;2024-02-26T09:18:17;97762.72;;;9.41
69186;BMP280;56298;49.246;9.410;2024-02-26T09:20:48;97772.88;;;9.48
69186;BMP280;56298;49.246;9.410;2024-02-26T09:23:13;97773.28;;;9.53
69186;BMP280;56298;49.246;9.410;2024-02-26T09:25:38;97774.63;;;10.14
69186;BMP280;56298;49.246;9.410;2024-02-26T09:28:04;97784.03;;;10.49
69186;BMP280;56298;49.246;9.410;2024-02-26T09:30:29;97777.69;;;10.89
69186;BMP280;56298;49.246;9.410;2024-02-26T09:32:55;97776.84;;;11.13
69186;BMP280;56298;49.246;9.410;2024-02-26T09:35:20;97781.94;;;11.11
69186;BMP280;56298;49.246;9.410;2024-02-26T09:37:46;97783.84;;;11.29
69186;BMP280;56298;49.246;9.410;2024-02-26T09:40:14;97786.41;;;11.69
69186;BMP280;56298;49.246;9.410;2024-02-26T09:42:44;97771.50;;;11.66
69186;BMP280;56298;49.246;9.410;2024-02-26T09:45:12;97778.03;;;11.91
69186;BMP280;56298;49.246;9.410;2024-02-26T09:47:41;97783.09;;;11.96
69186;BMP280;56298;49.246;9.410;2024-02-26T09:50:09;97792.03;;;12.07
69186;BMP280;56298;49.246;9.410;2024-02-26T09:52:37;97784.81;;;12.32
69186;BMP280;56298;49.246;9.410;2024-02-26T09:55:03;97792.09;;;12.49
69186;BMP280;56298;49.246;9.410;2024-02-26T09:57:29;97782.84;;;12.74
69186;BMP280;56298;49.246;9.410;2024-02-26T09:59:59;97781.91;;;12.88
69186;BMP280;56298;49.246;9.410;2024-02-26T10:02:28;97787.25;;;12.64
69186;BMP280;56298;49.246;9.410;2024-02-26T10:04:56;97781.53;;;12.86
69186;BMP280;56298;49.246;9.410;2024-02-26T10:07:23;97783.94;;;12.80
69186;BMP280;56298;49.246;9.410;2024-02-26T10:09:48;97777.47;;;12.98
69186;BMP280;56298;49.246;9.410;2024-02-26T10:12:14;97780.44;;;12.80
69186;BMP280;56298;49.246;9.410;2024-02-26T10:14:43;97773.59;;;12.92
69186;BMP280;56298;49.246;9.410;2024-02-26T10:17:08;97774.47;;;12.85
69186;BMP280;56298;49.246;9.410;2024-02-26T10:19:34;97776.56;;;12.70
69186;BMP280;56298;49.246;9.410;2024-02-26T10:22:00;97777.59;;;12.87
69186;BMP280;56298;49.246;9.410;2024-02-26T10:24:27;97775.22;;;12.89
69186;BMP280;56298;49.246;9.410;2024-02-26T10:26:55;97775.13;;;12.96
69186;BMP280;56298;49.246;9.410;2024-02-26T10:29:21;97780.38;;;13.49
69186;BMP280;56298;49.246;9.410;2024-02-26T10:31:47;97776.38;;;13.81
69186;BMP280;56298;49.246;9.410;2024-02-26T10:34:13;97777.75;;;14.17
69186;BMP280;56298;49.246;9.410;2024-02-26T10:36:39;97780.09;;;14.43
69186;BMP280;56298;49.246;9.410;2024-02-26T10:39:09;97777.88;;;14.58
69186;BMP280;56298;49.246;9.410;2024-02-26T10:41:35;97775.84;;;14.62
69186;BMP280;56298;49.246;9.410;2024-02-26T10:44:00;97769.56;;;14.37
69186;BMP280;56298;49.246;9.410;2024-02-26T10:46:26;97780.31;;;14.08
69186;BMP280;56298;49.246;9.410;2024-02-26T10:48:52;97775.69;;;14.01
69186;BMP280;56298;49.246;9.410;2024-02-26T10:51:22;97782.69;;;14.06
69186;BMP280;56298;49.246;9.410;2024-02-26T10:53:57;97798.53;;;13.74
69186;BMP280;56298;49.246;9.410;2024-02-26T10:56:27;97799.50;;;13.60
69186;BMP280;56298;49.246;9.410;2024-02-26T10:58:53;97806.75;;;13.47
69186;BMP280;56298;49.246;9.410;2024-02-26T11:01:20;97795.16;;;13.32
69186;BMP280;56298;49.246;9.410;2024-02-26T11:03:48;97792.66;;;13.45
69186;BMP280;56298;49.246;9.410;2024-02-26T11:06:15;97788.34;;;13.40
69186;BMP280;56298;49.246;9.410;2024-02-26T11:08:40;97784.50;;;13.34
69186;BMP280;56298;49.246;9.410;2024-02-26T11:11:06;97780.81;;;13.48
69186;BMP280;56298;49.246;9.410;2024-02-26T11:13:33;97778.88;;;13.45
69186;BMP280;56298;49.246;9.410;2024-02-26T11:16:03;97780.25;;;13.29
69186;BMP280;56298;49.246;9.410;2024-02-26T11:18:29;97767.88;;;13.45
69186;BMP280;56298;49.246;9.410;2024-02-26T11:20:55;97776.88;;;13.45
69186;BMP280;56298;49.246;9.410;2024-02-26T11:23:23;97770.00;;;13.61
69186;BMP280;56298;49.246;9.410;2024-02-26T11:25:54;97777.22;;;13.78
69186;BMP280;56298;49.246;9.410;2024-02-26T11:28:21;97777.34;;;14.19
69186;BMP280;56298;49.246;9.410;2024-02-26T11:30:48;97779.19;;;14.49
69186;BMP280;56298;49.246;9.410;2024-02-26T11:33:15;97776.56;;;14.66
69186;BMP280;56298;49.246;9.410;2024-02-26T11:35:41;97779.13;;;14.77
69186;BMP280;56298;49.246;9.410;2024-02-26T11:38:06;97790.69;;;14.68
69186;BMP280;56298;49.246;9.410;2024-02-26T11:40:33;97786.25;;;14.74
69186;BMP280;56298;49.246;9.410;2024-02-26T11:42:59;97777.94;;;15.35
69186;BMP280;56298;49.246;9.410;2024-02-26T11:48:11;97776.16;;;15.45
69186;BMP280;56298;49.246;9.410;2024-02-26T11:50:39;97782.72;;;15.14
69186;BMP280;56298;49.246;9.410;2024-02-26T11:59:09;97782.19;;;14.59
69186;BMP280;56298;49.246;9.410;2024-02-26T12:01:43;97782.34;;;14.72
69186;BMP280;56298;49.246;9.410;2024-02-26T12:04:23;97785.81;;;14.56
69186;BMP280;56298;49.246;9.410;2024-02-26T12:07:02;97786.50;;;14.16
69186;BMP280;56298;49.246;9.410;2024-02-26T12:09:45;97792.25;;;14.25
69186;BMP280;56298;49.246;9.410;2024-02-26T12:12:17;97784.00;;;14.45
69186;BMP280;56298;49.246;9.410;2024-02-26T12:14:53;97789.97;;;14.64
69186;BMP280;56298;49.246;9.410;2024-02-26T12:17:23;97793.31;;;14.75
69186;BMP280;56298;49.246;9.410;2024-02-26T12:19:49;97800.59;;;14.65
69186;BMP280;56298;49.246;9.410;2024-02-26T12:22:15;97801.34;;;14.90
69186;BMP280;56298;49.246;9.410;2024-02-26T12:24:42;97794.31;;;15.05
69186;BMP280;56298;49.246;9.410;2024-02-26T12:27:07;97802.75;;;14.98
69186;BMP280;56298;49.246;9.410;2024-02-26T12:29:32;97794.63;;;15.28
69186;BMP280;56298;49.246;9.410;2024-02-26T12:31:58;97783.47;;;15.35
69186;BMP280;56298;49.246;9.410;2024-02-26T12:34:23;97787.75;;;15.56
69186;BMP280;56298;49.246;9.410;2024-02-26T12:36:49;97790.25;;;15.67
69186;BMP280;56298;49.246;9.410;2024-02-26T12:39:14;97792.06;;;15.74
69186;BMP280;56298;49.246;9.410;2024-02-26T12:41:40;97795.06;;;15.63
69186;BMP280;56298;49.246;9.410;2024-02-26T12:44:05;97799.81;;;15.62
69186;BMP280;56298;49.246;9.410;2024-02-26T12:46:32;97802.16;;;15.64
69186;BMP280;56298;49.246;9.410;2024-02-26T12:48:58;97801.47;;;15.23
69186;BMP280;56298;49.246;9.410;2024-02-26T12:51:26;97802.28;;;15.03
69186;BMP280;56298;49.246;9.410;2024-02-26T12:53:53;97814.00;;;14.87
69186;BMP280;56298;49.246;9.410;2024-02-26T12:56:19;97816.38;;;14.85
69186;BMP280;56298;49.246;9.410;2024-02-26T12:58:45;97815.63;;;15.05
69186;BMP280;56298;49.246;9.410;2024-02-26T13:01:14;97814.63;;;15.15
69186;BMP280;56298;49.246;9.410;2024-02-26T13:03:40;97814.56;;;14.99
69186;BMP280;56298;49.246;9.410;2024-02-26T13:06:06;97820.28;;;14.88
69186;BMP280;56298;49.246;9.410;2024-02-26T13:08:32;97819.75;;;14.96
69186;BMP280;56298;49.246;9.410;2024-02-26T13:10:58;97821.91;;;15.05
69186;BMP280;56298;49.246;9.410;2024-02-26T13:13:24;97833.66;;;15.09
69186;BMP280;56298;49.246;9.410;2024-02-26T13:15:49;97830.19;;;15.05
69186;BMP280;56298;49.246;9.410;2024-02-26T13:18:14;97843.59;;;15.07
69186;BMP280;56298;49.246;9.410;2024-02-26T13:20:40;97841.19;;;15.09
69186;BMP280;56298;49.246;9.410;2024-02-26T13:23:08;97842.09;;;15.02
69186;BMP280;56298;49.246;9.410;2024-02-26T13:25:34;97841.09;;;14.92
69186;BMP280;56298;49.246;9.410;2024-02-26T13:28:12;97840.72;;;14.70
69186;BMP280;56298;49.246;9.410;2024-02-26T13:30:38;97839.38;;;14.78
69186;BMP280;56298;49.246;9.410;2024-02-26T13:33:15;97834.41;;;14.70
69186;BMP280;56298;49.246;9.410;2024-02-26T13:36:00;97844.97;;;14.75
69186;BMP280;56298;49.246;9.410;2024-02-26T13:38:26;97845.66;;;14.79
69186;BMP280;56298;49.246;9.410;2024-02-26T13:40:52;97845.81;;;14.72
69186;BMP280;56298;49.246;9.410;2024-02-26T13:43:18;97849.34;;;14.72
69186;BMP280;56298;49.246;9.410;2024-02-26T13:45:45;97856.78;;;14.75
69186;BMP280;56298;49.246;9.410;2024-02-26T13:48:11;97858.09;;;14.91
69186;BMP280;56298;49.246;9.410;2024-02-26T13:50:37;97854.06;;;14.95
69186;BMP280;56298;49.246;9.410;2024-02-26T13:53:02;97857.28;;;14.90
69186;BMP280;56298;49.246;9.410;2024-02-26T13:55:29;97851.81;;;14.66
69186;BMP280;56298;49.246;9.410;2024-02-26T13:57:56;97860.16;;;14.39
69186;BMP280;56298;49.246;9.410;2024-02-26T14:00:22;97857.78;;;14.37
69186;BMP280;56298;49.246;9.410;2024-02-26T14:02:47;97846.34;;;14.15
69186;BMP280;56298;49.246;9.410;2024-02-26T14:05:12;97852.66;;;14.12
69186;BMP280;56298;49.246;9.410;2024-02-26T14:07:39;97852.47;;;14.27
69186;BMP280;56298;49.246;9.410;2024-02-26T14:10:04;97850.50;;;14.27
69186;BMP280;56298;49.246;9.410;2024-02-26T14:12:30;97859.75;;;14.41
69186;BMP280;56298;49.246;9.410;2024-02-26T14:14:55;97849.25;;;14.56
69186;BMP280;56298;49.246;9.410;2024-02-26T14:17:24;97852.22;;;14.41
69186;BMP280;56298;49.246;9.410;2024-02-26T14:19:49;97857.03;;;14.37
69186;BMP280;56298;49.246;9.410;2024-02-26T14:22:15;97860.31;;;14.28